sensor_id;sensor_type;location;lat;lon;timestamp;pressure;altitude;pressure_sealevel;temperature;humidity
15444;BME280;7822;48.146;11.576;2023-03-23T00:00:56;94690.97;;;14.84;63.40
15444;BME280;7822;48.146;11.576;2023-03-23T00:03:23;94688.53;;;14.82;63.71
15444;BME280;7822;48.146;11.576;2023-03-23T00:05:51;94685.94;;;14.82;63.74
15444;BME280;7822;48.146;11.576;2023-03-23T00:08:18;94680.72;;;14.82;63.38
15444;BME280;7822;48.146;11.576;2023-03-23T00:10:48;94683.31;;;14.82;63.50
15444;BME280;7822;48.146;11.576;2023-03-23T00:13:16;94691.16;;;14.82;63.59
15444;BME280;7822;48.146;11.576;2023-03-23T00:15:44;94679.88;;;14.82;63.52
15444;BME280;7822;48.146;11.576;2023-03-23T00:18:14;94679.88;;;14.82;63.60
15444;BME280;7822;48.146;11.576;2023-03-23T00:20:46;94682.50;;;14.82;63.46
15444;BME280;7822;48.146;11.576;2023-03-23T00:23:14;94679.06;;;14.81;63.73
15444;BME280;7822;48.146;11.576;2023-03-23T00:25:45;94677.41;;;14.80;63.49
15444;BME280;7822;48.146;11.576;2023-03-23T00:28:12;94683.47;;;14.81;63.48
15444;BME280;7822;48.146;11.576;2023-03-23T00:30:41;94678.25;;;14.81;63.61
15444;BME280;7822;48.146;11.576;2023-03-23T00:33:10;94678.25;;;14.81;63.50
15444;BME280;7822;48.146;11.576;2023-03-23T00:35:40;94675.63;;;14.81;63.76
15444;BME280;7822;48.146;11.576;2023-03-23T00:38:06;94680.84;;;14.81;63.42
15444;BME280;7822;48.146;11.576;2023-03-23T00:40:34;94668.78;;;14.80;63.39
15444;BME280;7822;48.146;11.576;2023-03-23T00:43:01;94676.44;;;14.81;63.40
15444;BME280;7822;48.146;11.576;2023-03-23T00:45:29;94672.06;;;14.82;63.35
15444;BME280;7822;48.146;11.576;2023-03-23T00:47:57;94673.84;;;14.81;63.48
15444;BME280;7822;48.146;11.576;2023-03-23T00:50:28;94677.41;;;14.80;63.54
15444;BME280;7822;48.146;11.576;2023-03-23T00:52:54;94679.06;;;14.81;63.42
15444;BME280;7822;48.146;11.576;2023-03-23T00:55:22;94676.44;;;14.81;63.48
15444;BME280;7822;48.146;11.576;2023-03-23T00:57:49;94676.44;;;14.81;63.46
15444;BME280;7822;48.146;11.576;2023-03-23T01:00:17;94670.41;;;14.81;63.24
15444;BME280;7822;48.146;11.576;2023-03-23T01:02:44;94667.66;;;14.82;63.48
15444;BME280;7822;48.146;11.576;2023-03-23T01:05:12;94667.78;;;14.81;63.40
15444;BME280;7822;48.146;11.576;2023-03-23T01:07:40;94660.78;;;14.81;63.69
15444;BME280;7822;48.146;11.576;2023-03-23T01:10:07;94657.22;;;14.82;63.51
15444;BME280;7822;48.146;11.576;2023-03-23T01:12:34;94666.84;;;14.82;63.35
15444;BME280;7822;48.146;11.576;2023-03-23T01:15:00;94661.59;;;14.82;63.53
15444;BME280;7822;48.146;11.576;2023-03-23T01:17:27;94659.97;;;14.81;63.35
15444;BME280;7822;48.146;11.576;2023-03-23T01:19:53;94658.19;;;14.81;63.43
15444;BME280;7822;48.146;11.576;2023-03-23T01:22:22;94654.75;;;14.81;63.47
15444;BME280;7822;48.146;11.576;2023-03-23T01:24:49;94654.75;;;14.81;63.16
15444;BME280;7822;48.146;11.576;2023-03-23T01:27:16;94653.78;;;14.82;63.36
15444;BME280;7822;48.146;11.576;2023-03-23T01:29:42;94649.50;;;14.81;63.36
15444;BME280;7822;48.146;11.576;2023-03-23T01:32:09;94648.69;;;14.80;63.25
15444;BME280;7822;48.146;11.576;2023-03-23T01:34:36;94642.50;;;14.81;63.63
15444;BME280;7822;48.146;11.576;2023-03-23T01:37:02;94645.13;;;14.81;63.25
15444;BME280;7822;48.146;11.576;2023-03-23T01:39:30;94648.69;;;14.80;63.52
15444;BME280;7822;48.146;11.576;2023-03-23T01:41:57;94642.69;;;14.80;63.73
15444;BME280;7822;48.146;11.576;2023-03-23T01:47:27;94644.28;;;14.81;63.51
15444;BME280;7822;48.146;11.576;2023-03-23T01:49:54;94648.69;;;14.80;63.53
15444;BME280;7822;48.146;11.576;2023-03-23T01:52:23;94649.50;;;14.81;63.53
15444;BME280;7822;48.146;11.576;2023-03-23T01:54:54;94650.50;;;14.80;63.85
15444;BME280;7822;48.146;11.576;2023-03-23T01:57:24;94646.09;;;14.80;63.30
15444;BME280;7822;48.146;11.576;2023-03-23T01:59:54;94652.13;;;14.81;63.56
15444;BME280;7822;48.146;11.576;2023-03-23T02:02:24;94653.13;;;14.80;63.61
15444;BME280;7822;48.146;11.576;2023-03-23T02:04:55;94647.91;;;14.80;63.83
15444;BME280;7822;48.146;11.576;2023-03-23T02:07:25;94640.84;;;14.80;63.48
15444;BME280;7822;48.146;11.576;2023-03-23T02:09:53;94644.28;;;14.81;63.60
15444;BME280;7822;48.146;11.576;2023-03-23T02:12:20;94641.84;;;14.79;63.40
15444;BME280;7822;48.146;11.576;2023-03-23T02:14:47;94638.25;;;14.80;63.37
15444;BME280;7822;48.146;11.576;2023-03-23T02:17:18;94638.25;;;14.80;63.48
15444;BME280;7822;48.146;11.576;2023-03-23T02:20:05;94634.03;;;14.79;63.62
15444;BME280;7822;48.146;11.576;2023-03-23T02:22:56;94633.19;;;14.79;63.52
15444;BME280;7822;48.146;11.576;2023-03-23T02:25:43;94637.47;;;14.80;63.56
15444;BME280;7822;48.146;11.576;2023-03-23T02:28:41;94629.63;;;14.80;63.53
15444;BME280;7822;48.146;11.576;2023-03-23T02:31:23;94634.84;;;14.80;63.65
15444;BME280;7822;48.146;11.576;2023-03-23T02:33:56;94635.63;;;14.80;63.64
15444;BME280;7822;48.146;11.576;2023-03-23T02:36:28;94634.84;;;14.80;63.67
15444;BME280;7822;48.146;11.576;2023-03-23T02:39:00;94633.03;;;14.80;63.53
15444;BME280;7822;48.146;11.576;2023-03-23T02:41:32;94635.63;;;14.80;63.51
15444;BME280;7822;48.146;11.576;2023-03-23T02:44:02;94630.41;;;14.80;63.55
15444;BME280;7822;48.146;11.576;2023-03-23T02:46:30;94636.47;;;14.81;63.49
15444;BME280;7822;48.146;11.576;2023-03-23T02:48:59;94630.28;;;14.82;63.72
15444;BME280;7822;48.146;11.576;2023-03-23T02:51:28;94633.03;;;14.80;63.63
15444;BME280;7822;48.146;11.576;2023-03-23T02:53:56;94635.63;;;14.80;63.67
15444;BME280;7822;48.146;11.576;2023-03-23T02:56:26;94633.03;;;14.80;63.67
15444;BME280;7822;48.146;11.576;2023-03-23T02:58:54;94631.41;;;14.79;63.50
15444;BME280;7822;48.146;11.576;2023-03-23T03:01:55;94625.19;;;14.80;63.58
15444;BME280;7822;48.146;11.576;2023-03-23T03:04:24;94635.63;;;14.80;63.37
15444;BME280;7822;48.146;11.576;2023-03-23T03:07:18;94635.63;;;14.80;63.55
15444;BME280;7822;48.146;11.576;2023-03-23T03:09:52;94632.22;;;14.80;63.66
15444;BME280;7822;48.146;11.576;2023-03-23T03:12:31;94627.81;;;14.80;63.61
15444;BME280;7822;48.146;11.576;2023-03-23T03:15:08;94627.81;;;14.80;63.63
15444;BME280;7822;48.146;11.576;2023-03-23T03:17:39;94628.81;;;14.79;63.54
15444;BME280;7822;48.146;11.576;2023-03-23T03:20:10;94621.78;;;14.80;63.53
15444;BME280;7822;48.146;11.576;2023-03-23T03:22:41;94625.38;;;14.79;63.61
15444;BME280;7822;48.146;11.576;2023-03-23T03:25:12;94624.53;;;14.78;63.83
15444;BME280;7822;48.146;11.576;2023-03-23T03:27:41;94626.34;;;14.78;63.68
15444;BME280;7822;48.146;11.576;2023-03-23T03:30:14;94618.34;;;14.79;63.66
15444;BME280;7822;48.146;11.576;2023-03-23T03:32:44;94625.38;;;14.79;63.32
15444;BME280;7822;48.146;11.576;2023-03-23T03:35:15;94627.97;;;14.79;63.56
15444;BME280;7822;48.146;11.576;2023-03-23T03:37:42;94630.59;;;14.79;63.87
15444;BME280;7822;48.146;11.576;2023-03-23T03:40:13;94625.38;;;14.79;63.70
15444;BME280;7822;48.146;11.576;2023-03-23T03:42:40;94632.38;;;14.78;63.64
15444;BME280;7822;48.146;11.576;2023-03-23T03:45:09;94634.97;;;14.78;63.71
15444;BME280;7822;48.146;11.576;2023-03-23T03:47:36;94633.19;;;14.79;63.35
15444;BME280;7822;48.146;11.576;2023-03-23T03:50:03;94629.75;;;14.78;63.56
15444;BME280;7822;48.146;11.576;2023-03-23T03:52:32;94628.16;;;14.77;63.60
15444;BME280;7822;48.146;11.576;2023-03-23T03:54:59;94639.41;;;14.78;63.53
15444;BME280;7822;48.146;11.576;2023-03-23T03:57:26;94643.63;;;14.79;63.28
15444;BME280;7822;48.146;11.576;2023-03-23T03:59:52;94647.06;;;14.79;63.60
15444;BME280;7822;48.146;11.576;2023-03-23T04:02:19;94648.88;;;14.79;63.68
15444;BME280;7822;48.146;11.576;2023-03-23T04:04:46;94647.25;;;14.78;63.57
15444;BME280;7822;48.146;11.576;2023-03-23T04:07:13;94641.03;;;14.79;63.58
15444;BME280;7822;48.146;11.576;2023-03-23T04:09:43;94636.81;;;14.78;63.88
15444;BME280;7822;48.146;11.576;2023-03-23T04:12:12;94641.03;;;14.79;63.57
15444;BME280;7822;48.146;11.576;2023-03-23T04:14:39;94651.47;;;14.79;63.59
15444;BME280;7822;48.146;11.576;2023-03-23T04:17:06;94650.66;;;14.78;63.28
15444;BME280;7822;48.146;11.576;2023-03-23T04:19:34;94651.31;;;14.80;63.54
15444;BME280;7822;48.146;11.576;2023-03-23T04:22:02;94651.47;;;14.79;63.81
15444;BME280;7822;48.146;11.576;2023-03-23T04:24:28;94651.47;;;14.79;63.77
15444;BME280;7822;48.146;11.576;2023-03-23T04:26:59;94664.53;;;14.79;63.43
15444;BME280;7822;48.146;11.576;2023-03-23T04:29:26;94665.34;;;14.79;63.76
15444;BME280;7822;48.146;11.576;2023-03-23T04:31:53;94674.00;;;14.80;63.57
15444;BME280;7822;48.146;11.576;2023-03-23T04:34:21;94668.94;;;14.78;63.41
15444;BME280;7822;48.146;11.576;2023-03-23T04:36:49;94677.41;;;14.80;63.38
15444;BME280;7822;48.146;11.576;2023-03-23T04:39:15;94668.13;;;14.78;63.33
15444;BME280;7822;48.146;11.576;2023-03-23T04:41:43;94674.97;;;14.79;63.79
15444;BME280;7822;48.146;11.576;2023-03-23T04:44:12;94677.59;;;14.79;63.67
15444;BME280;7822;48.146;11.576;2023-03-23T04:46:44;94674.97;;;14.79;63.59
15444;BME280;7822;48.146;11.576;2023-03-23T04:49:15;94665.34;;;14.79;63.39
15444;BME280;7822;48.146;11.576;2023-03-23T04:51:46;94668.94;;;14.78;63.90
15444;BME280;7822;48.146;11.576;2023-03-23T04:54:12;94659.31;;;14.79;63.82
15444;BME280;7822;48.146;11.576;2023-03-23T04:56:39;94671.53;;;14.78;63.79
15444;BME280;7822;48.146;11.576;2023-03-23T04:59:07;94671.53;;;14.78;63.55
15444;BME280;7822;48.146;11.576;2023-03-23T05:01:35;94672.38;;;14.79;63.50
15444;BME280;7822;48.146;11.576;2023-03-23T05:04:04;94674.97;;;14.79;63.66
15444;BME280;7822;48.146;11.576;2023-03-23T05:06:30;94667.31;;;14.77;63.65
15444;BME280;7822;48.146;11.576;2023-03-23T05:08:57;94674.00;;;14.80;63.32
15444;BME280;7822;48.146;11.576;2023-03-23T05:11:24;94672.38;;;14.79;63.59
15444;BME280;7822;48.146;11.576;2023-03-23T05:13:50;94666.97;;;14.80;63.60
15444;BME280;7822;48.146;11.576;2023-03-23T05:16:17;94669.59;;;14.80;63.37
15444;BME280;7822;48.146;11.576;2023-03-23T05:18:45;94672.19;;;14.80;63.59
15444;BME280;7822;48.146;11.576;2023-03-23T05:21:11;94679.06;;;14.81;63.55
15444;BME280;7822;48.146;11.576;2023-03-23T05:23:39;94678.88;;;14.83;63.58
15444;BME280;7822;48.146;11.576;2023-03-23T05:26:06;94687.56;;;14.83;63.52
15444;BME280;7822;48.146;11.576;2023-03-23T05:28:33;94687.56;;;14.83;63.40
15444;BME280;7822;48.146;11.576;2023-03-23T05:30:59;94691.81;;;14.84;63.55
15444;BME280;7822;48.146;11.576;2023-03-23T05:33:26;94686.59;;;14.84;63.57
15444;BME280;7822;48.146;11.576;2023-03-23T05:35:54;94696.03;;;14.85;63.54
15444;BME280;7822;48.146;11.576;2023-03-23T05:38:21;94696.84;;;14.86;63.21
15444;BME280;7822;48.146;11.576;2023-03-23T05:40:47;94702.91;;;14.87;63.28
15444;BME280;7822;48.146;11.576;2023-03-23T05:43:14;94695.06;;;14.87;63.52
15444;BME280;7822;48.146;11.576;2023-03-23T05:45:41;94694.25;;;14.86;63.59
15444;BME280;7822;48.146;11.576;2023-03-23T05:48:07;94668.13;;;14.86;63.67
15444;BME280;7822;48.146;11.576;2023-03-23T05:50:34;94660.31;;;14.86;63.69
15444;BME280;7822;48.146;11.576;2023-03-23T05:53:02;94661.13;;;14.87;63.52
15444;BME280;7822;48.146;11.576;2023-03-23T05:55:29;94654.91;;;14.88;63.60
15444;BME280;7822;48.146;11.576;2023-03-23T05:57:56;94642.03;;;14.86;63.42
15444;BME280;7822;48.146;11.576;2023-03-23T06:00:22;94642.84;;;14.87;63.61
15444;BME280;7822;48.146;11.576;2023-03-23T06:02:49;94635.00;;;14.87;63.90
15444;BME280;7822;48.146;11.576;2023-03-23T06:05:17;94639.41;;;14.86;63.52
15444;BME280;7822;48.146;11.576;2023-03-23T06:07:44;94630.75;;;14.85;63.57
15444;BME280;7822;48.146;11.576;2023-03-23T06:10:13;94622.09;;;14.85;63.42
15444;BME280;7822;48.146;11.576;2023-03-23T06:12:40;94632.53;;;14.85;63.40
15444;BME280;7822;48.146;11.576;2023-03-23T06:15:08;94649.03;;;14.85;63.70
15444;BME280;7822;48.146;11.576;2023-03-23T06:17:36;94649.03;;;14.85;63.44
15444;BME280;7822;48.146;11.576;2023-03-23T06:20:04;94655.06;;;14.86;63.62
15444;BME280;7822;48.146;11.576;2023-03-23T06:22:35;94663.09;;;14.84;63.46
15444;BME280;7822;48.146;11.576;2023-03-23T06:25:03;94667.31;;;14.85;63.65
15444;BME280;7822;48.146;11.576;2023-03-23T06:27:31;94681.38;;;14.84;63.65
15444;BME280;7822;48.146;11.576;2023-03-23T06:29:58;94675.16;;;14.85;63.70
15444;BME280;7822;48.146;11.576;2023-03-23T06:32:27;94672.53;;;14.85;63.67
15444;BME280;7822;48.146;11.576;2023-03-23T06:34:55;94670.91;;;14.84;63.54
15444;BME280;7822;48.146;11.576;2023-03-23T06:37:22;94665.69;;;14.84;63.94
15444;BME280;7822;48.146;11.576;2023-03-23T06:39:49;94665.69;;;14.84;63.61
15444;BME280;7822;48.146;11.576;2023-03-23T06:42:17;94654.44;;;14.84;63.51
15444;BME280;7822;48.146;11.576;2023-03-23T06:44:45;94644.81;;;14.84;63.43
15444;BME280;7822;48.146;11.576;2023-03-23T06:47:12;94647.41;;;14.84;63.41
15444;BME280;7822;48.146;11.576;2023-03-23T06:49:38;94642.19;;;14.84;63.80
15444;BME280;7822;48.146;11.576;2023-03-23T06:52:05;94630.94;;;14.84;63.50
15444;BME280;7822;48.146;11.576;2023-03-23T06:54:32;94635.31;;;14.83;63.66
15444;BME280;7822;48.146;11.576;2023-03-23T06:56:59;94625.69;;;14.84;63.56
15444;BME280;7822;48.146;11.576;2023-03-23T06:59:26;94623.91;;;14.84;63.84
15444;BME280;7822;48.146;11.576;2023-03-23T07:01:54;94621.31;;;14.84;63.66
15444;BME280;7822;48.146;11.576;2023-03-23T07:04:20;94621.44;;;14.83;63.69
15444;BME280;7822;48.146;11.576;2023-03-23T07:06:48;94617.88;;;14.84;63.59
15444;BME280;7822;48.146;11.576;2023-03-23T07:09:15;94619.66;;;14.83;63.58
15444;BME280;7822;48.146;11.576;2023-03-23T07:11:42;94625.69;;;14.84;63.62
15444;BME280;7822;48.146;11.576;2023-03-23T07:14:09;94635.16;;;14.85;63.84
15444;BME280;7822;48.146;11.576;2023-03-23T07:16:35;94640.38;;;14.85;63.71
15444;BME280;7822;48.146;11.576;2023-03-23T07:19:04;94642.19;;;14.84;63.54
15444;BME280;7822;48.146;11.576;2023-03-23T07:21:30;94642.19;;;14.84;63.39
15444;BME280;7822;48.146;11.576;2023-03-23T07:23:57;94643.81;;;14.85;63.83
15444;BME280;7822;48.146;11.576;2023-03-23T07:26:23;94643.81;;;14.85;63.68
15444;BME280;7822;48.146;11.576;2023-03-23T07:28:50;94641.19;;;14.85;63.69
15444;BME280;7822;48.146;11.576;2023-03-23T07:31:16;94636.97;;;14.84;63.69
15444;BME280;7822;48.146;11.576;2023-03-23T07:33:43;94634.19;;;14.86;63.60
15444;BME280;7822;48.146;11.576;2023-03-23T07:36:11;94641.19;;;14.85;63.44
15444;BME280;7822;48.146;11.576;2023-03-23T07:38:38;94639.41;;;14.86;63.90
15444;BME280;7822;48.146;11.576;2023-03-23T07:41:05;94635.97;;;14.85;63.47
15444;BME280;7822;48.146;11.576;2023-03-23T07:43:32;94636.78;;;14.86;63.66
15444;BME280;7822;48.146;11.576;2023-03-23T07:45:59;94629.94;;;14.85;63.72
15444;BME280;7822;48.146;11.576;2023-03-23T07:48:25;94643.81;;;14.85;63.43
15444;BME280;7822;48.146;11.576;2023-03-23T07:50:52;94631.56;;;14.86;63.40
15444;BME280;7822;48.146;11.576;2023-03-23T07:53:20;94628.97;;;14.86;63.68
15444;BME280;7822;48.146;11.576;2023-03-23T07:55:48;94630.75;;;14.85;63.58
15444;BME280;7822;48.146;11.576;2023-03-23T07:58:15;94628.13;;;14.85;63.72
15444;BME280;7822;48.146;11.576;2023-03-23T08:00:45;94631.75;;;14.84;63.70
15444;BME280;7822;48.146;11.576;2023-03-23T08:03:12;94626.53;;;14.84;63.81
15444;BME280;7822;48.146;11.576;2023-03-23T08:05:38;94628.13;;;14.85;63.67
15444;BME280;7822;48.146;11.576;2023-03-23T08:08:07;94631.75;;;14.84;63.49
15444;BME280;7822;48.146;11.576;2023-03-23T08:10:36;94633.53;;;14.84;63.73
15444;BME280;7822;48.146;11.576;2023-03-23T08:13:03;94632.53;;;14.85;63.98
15444;BME280;7822;48.146;11.576;2023-03-23T08:15:31;94619.47;;;14.85;63.60
15444;BME280;7822;48.146;11.576;2023-03-23T08:18:03;94630.75;;;14.85;63.75
15444;BME280;7822;48.146;11.576;2023-03-23T08:20:30;94631.75;;;14.84;63.39
15444;BME280;7822;48.146;11.576;2023-03-23T08:22:58;94630.94;;;14.84;64.04
15444;BME280;7822;48.146;11.576;2023-03-23T08:25:25;94634.34;;;14.84;63.79
15444;BME280;7822;48.146;11.576;2023-03-23T08:27:53;94631.56;;;14.86;63.60
15444;BME280;7822;48.146;11.576;2023-03-23T08:30:21;94633.53;;;14.84;64.06
15444;BME280;7822;48.146;11.576;2023-03-23T08:32:49;94635.16;;;14.85;63.82
15444;BME280;7822;48.146;11.576;2023-03-23T08:35:17;94636.16;;;14.84;63.96
15444;BME280;7822;48.146;11.576;2023-03-23T08:37:45;94639.59;;;14.84;63.72
15444;BME280;7822;48.146;11.576;2023-03-23T08:40:17;94632.72;;;14.83;63.83
15444;BME280;7822;48.146;11.576;2023-03-23T08:42:45;94637.75;;;14.85;63.67
15444;BME280;7822;48.146;11.576;2023-03-23T08:45:15;94637.75;;;14.85;63.50
15444;BME280;7822;48.146;11.576;2023-03-23T08:47:43;94637.75;;;14.85;64.05
15444;BME280;7822;48.146;11.576;2023-03-23T08:50:12;94634.34;;;14.84;64.08
15444;BME280;7822;48.146;11.576;2023-03-23T08:52:40;94645.59;;;14.85;63.44
15444;BME280;7822;48.146;11.576;2023-03-23T08:55:07;94650.03;;;14.84;63.56
15444;BME280;7822;48.146;11.576;2023-03-23T08:57:35;94654.44;;;14.84;63.93
15444;BME280;7822;48.146;11.576;2023-03-23T09:00:02;94661.25;;;14.85;64.02
15444;BME280;7822;48.146;11.576;2023-03-23T09:02:40;94662.09;;;14.85;63.66
15444;BME280;7822;48.146;11.576;2023-03-23T09:05:07;94659.47;;;14.85;63.52
15444;BME280;7822;48.146;11.576;2023-03-23T09:07:35;94668.13;;;14.86;63.79
15444;BME280;7822;48.146;11.576;2023-03-23T09:10:02;94667.31;;;14.85;63.64
15444;BME280;7822;48.146;11.576;2023-03-23T09:12:28;94677.75;;;14.85;63.88
15444;BME280;7822;48.146;11.576;2023-03-23T09:14:55;94687.38;;;14.85;63.80
15444;BME280;7822;48.146;11.576;2023-03-23T09:17:22;94691.63;;;14.86;63.89
15444;BME280;7822;48.146;11.576;2023-03-23T09:19:50;94696.03;;;14.85;64.04
15444;BME280;7822;48.146;11.576;2023-03-23T09:22:16;94702.09;;;14.86;63.82
15444;BME280;7822;48.146;11.576;2023-03-23T09:24:45;94700.44;;;14.85;63.60
15444;BME280;7822;48.146;11.576;2023-03-23T09:27:12;94697.81;;;14.85;63.87
15444;BME280;7822;48.146;11.576;2023-03-23T09:29:38;94703.03;;;14.85;63.79
15444;BME280;7822;48.146;11.576;2023-03-23T09:32:06;94706.47;;;14.85;64.02
15444;BME280;7822;48.146;11.576;2023-03-23T09:34:33;94715.13;;;14.86;63.67
15444;BME280;7822;48.146;11.576;2023-03-23T09:37:02;94705.66;;;14.85;63.92
15444;BME280;7822;48.146;11.576;2023-03-23T09:39:30;94710.09;;;14.84;64.15
15444;BME280;7822;48.146;11.576;2023-03-23T09:42:21;94713.50;;;14.85;63.83
15444;BME280;7822;48.146;11.576;2023-03-23T09:45:02;94718.72;;;14.85;63.72
15444;BME280;7822;48.146;11.576;2023-03-23T09:47:37;94717.75;;;14.86;63.98
15444;BME280;7822;48.146;11.576;2023-03-23T09:50:10;94702.25;;;14.84;63.89
15444;BME280;7822;48.146;11.576;2023-03-23T09:52:46;94707.47;;;14.84;63.94
15444;BME280;7822;48.146;11.576;2023-03-23T09:55:16;94710.88;;;14.85;63.90
15444;BME280;7822;48.146;11.576;2023-03-23T09:57:47;94708.28;;;14.85;63.81
15444;BME280;7822;48.146;11.576;2023-03-23T10:00:20;94705.66;;;14.85;63.91
15444;BME280;7822;48.146;11.576;2023-03-23T10:02:55;94700.44;;;14.85;63.81
15444;BME280;7822;48.146;11.576;2023-03-23T10:05:30;94704.03;;;14.84;63.85
15444;BME280;7822;48.146;11.576;2023-03-23T10:08:00;94705.84;;;14.83;63.96
15444;BME280;7822;48.146;11.576;2023-03-23T10:10:34;94704.03;;;14.84;63.87
15444;BME280;7822;48.146;11.576;2023-03-23T10:13:07;94704.88;;;14.84;63.78
15444;BME280;7822;48.146;11.576;2023-03-23T10:15:39;94710.88;;;14.85;63.82
15444;BME280;7822;48.146;11.576;2023-03-23T10:18:10;94702.25;;;14.84;63.81
15444;BME280;7822;48.146;11.576;2023-03-23T10:20:43;94715.31;;;14.84;63.55
15444;BME280;7822;48.146;11.576;2023-03-23T10:23:33;94712.69;;;14.84;64.05
15444;BME280;7822;48.146;11.576;2023-03-23T10:26:05;94717.91;;;14.84;63.81
15444;BME280;7822;48.146;11.576;2023-03-23T10:28:39;94724.94;;;14.84;63.98
15444;BME280;7822;48.146;11.576;2023-03-23T10:31:10;94716.09;;;14.85;64.05
15444;BME280;7822;48.146;11.576;2023-03-23T10:33:40;94722.16;;;14.85;64.08
15444;BME280;7822;48.146;11.576;2023-03-23T10:36:16;94716.94;;;14.85;63.81
15444;BME280;7822;48.146;11.576;2023-03-23T10:38:50;94724.75;;;14.85;63.86
15444;BME280;7822;48.146;11.576;2023-03-23T10:41:20;94719.53;;;14.85;63.96
15444;BME280;7822;48.146;11.576;2023-03-23T10:43:47;94716.09;;;14.85;63.83
15444;BME280;7822;48.146;11.576;2023-03-23T10:46:26;94716.09;;;14.85;63.83
15444;BME280;7822;48.146;11.576;2023-03-23T10:48:56;94714.31;;;14.85;64.11
15444;BME280;7822;48.146;11.576;2023-03-23T10:51:28;94708.28;;;14.85;63.92
15444;BME280;7822;48.146;11.576;2023-03-23T10:54:01;94710.09;;;14.84;63.75
15444;BME280;7822;48.146;11.576;2023-03-23T10:56:29;94708.28;;;14.85;63.91
15444;BME280;7822;48.146;11.576;2023-03-23T10:59:11;94707.47;;;14.84;63.55
15444;BME280;7822;48.146;11.576;2023-03-23T11:01:42;94711.69;;;14.85;64.13
15444;BME280;7822;48.146;11.576;2023-03-23T11:04:12;94705.66;;;14.85;63.62
15444;BME280;7822;48.146;11.576;2023-03-23T11:06:44;94711.69;;;14.85;63.80
15444;BME280;7822;48.146;11.576;2023-03-23T11:09:14;94704.88;;;14.84;63.97
15444;BME280;7822;48.146;11.576;2023-03-23T11:11:47;94710.88;;;14.85;63.82
15444;BME280;7822;48.146;11.576;2023-03-23T11:14:16;94708.28;;;14.85;63.92
15444;BME280;7822;48.146;11.576;2023-03-23T11:16:49;94721.31;;;14.85;64.03
15444;BME280;7822;48.146;11.576;2023-03-23T11:19:21;94718.72;;;14.85;64.08
15444;BME280;7822;48.146;11.576;2023-03-23T11:21:50;94719.53;;;14.85;64.00
15444;BME280;7822;48.146;11.576;2023-03-23T11:24:21;94713.34;;;14.87;64.01
15444;BME280;7822;48.146;11.576;2023-03-23T11:26:49;94708.13;;;14.87;64.06
15444;BME280;7822;48.146;11.576;2023-03-23T11:29:19;94710.75;;;14.87;64.08
15444;BME280;7822;48.146;11.576;2023-03-23T11:31:49;94703.69;;;14.87;63.91
15444;BME280;7822;48.146;11.576;2023-03-23T11:34:19;94703.69;;;14.87;63.93
15444;BME280;7822;48.146;11.576;2023-03-23T11:36:48;94706.31;;;14.87;63.86
15444;BME280;7822;48.146;11.576;2023-03-23T11:39:25;94701.09;;;14.87;63.84
15444;BME280;7822;48.146;11.576;2023-03-23T11:41:53;94700.28;;;14.87;63.73
15444;BME280;7822;48.146;11.576;2023-03-23T11:44:21;94706.31;;;14.87;64.08
15444;BME280;7822;48.146;11.576;2023-03-23T11:46:57;94703.69;;;14.87;63.86
15444;BME280;7822;48.146;11.576;2023-03-23T11:49:34;94699.31;;;14.88;64.03
15444;BME280;7822;48.146;11.576;2023-03-23T11:52:11;94702.72;;;14.88;63.80
15444;BME280;7822;48.146;11.576;2023-03-23T11:54:46;94700.13;;;14.88;63.99
15444;BME280;7822;48.146;11.576;2023-03-23T11:57:14;94697.69;;;14.87;63.67
15444;BME280;7822;48.146;11.576;2023-03-23T11:59:41;94689.69;;;14.88;64.01
15444;BME280;7822;48.146;11.576;2023-03-23T12:02:36;94682.81;;;14.87;63.88
15444;BME280;7822;48.146;11.576;2023-03-23T12:05:29;94681.03;;;14.88;64.12
15444;BME280;7822;48.146;11.576;2023-03-23T12:08:07;94679.22;;;14.88;63.85
15444;BME280;7822;48.146;11.576;2023-03-23T12:10:43;94686.09;;;14.89;63.95
15444;BME280;7822;48.146;11.576;2023-03-23T12:13:28;94673.03;;;14.89;63.96
15444;BME280;7822;48.146;11.576;2023-03-23T12:16:02;94670.44;;;14.89;64.10
15444;BME280;7822;48.146;11.576;2023-03-23T12:18:40;94666.00;;;14.90;63.93
15444;BME280;7822;48.146;11.576;2023-03-23T12:21:18;94671.22;;;14.90;63.89
15444;BME280;7822;48.146;11.576;2023-03-23T12:23:54;94671.09;;;14.91;64.00
15444;BME280;7822;48.146;11.576;2023-03-23T12:26:25;94667.66;;;14.91;64.02
15444;BME280;7822;48.146;11.576;2023-03-23T12:29:18;94668.63;;;14.90;63.86
15444;BME280;7822;48.146;11.576;2023-03-23T12:31:56;94666.66;;;14.92;63.91
15444;BME280;7822;48.146;11.576;2023-03-23T12:34:33;94668.47;;;14.91;63.79
15444;BME280;7822;48.146;11.576;2023-03-23T12:37:19;94671.09;;;14.91;63.97
15444;BME280;7822;48.146;11.576;2023-03-23T12:40:03;94669.25;;;14.92;63.83
15444;BME280;7822;48.146;11.576;2023-03-23T12:42:43;94662.44;;;14.91;64.06
15444;BME280;7822;48.146;11.576;2023-03-23T12:45:21;94663.25;;;14.91;63.94
15444;BME280;7822;48.146;11.576;2023-03-23T12:47:54;94653.78;;;14.90;63.75
15444;BME280;7822;48.146;11.576;2023-03-23T12:50:28;94661.59;;;14.90;63.84
15444;BME280;7822;48.146;11.576;2023-03-23T12:52:59;94665.84;;;14.91;64.25
15444;BME280;7822;48.146;11.576;2023-03-23T12:55:34;94654.59;;;14.91;63.71
15444;BME280;7822;48.146;11.576;2023-03-23T12:58:05;94651.16;;;14.90;64.03
15444;BME280;7822;48.146;11.576;2023-03-23T13:00:50;94651.16;;;14.90;64.12
15444;BME280;7822;48.146;11.576;2023-03-23T13:03:23;94653.78;;;14.90;63.71
15444;BME280;7822;48.146;11.576;2023-03-23T13:05:54;94654.59;;;14.91;63.83
15444;BME280;7822;48.146;11.576;2023-03-23T13:08:26;94643.31;;;14.90;64.15
15444;BME280;7822;48.146;11.576;2023-03-23T13:10:58;94645.09;;;14.90;63.84
15444;BME280;7822;48.146;11.576;2023-03-23T13:13:41;94647.72;;;14.90;63.84
15444;BME280;7822;48.146;11.576;2023-03-23T13:16:14;94643.31;;;14.90;63.65
15444;BME280;7822;48.146;11.576;2023-03-23T13:18:47;94659.00;;;14.90;63.87